Time;durP1;ratioP1;P1;durP2;ratioP2;P2;SDS_P1;SDS_P2;PMS_P1;PMS_P2;Temp;Humidity;BMP_temperature;BMP_pressure;BME280_temperature;BME280_humidity;BME280_pressure;Samples;Min_cycle;Max_cycle;Signal;HPM_P1;HPM_P2
2022/12/11 00:00:02;;;;;;;3.72;3.15;;;16.20;68.50;;;;;;5086748;28;20379;-73
2022/12/11 00:02:28;;;;;;;3.67;2.55;;;16.10;68.50;;;;;;5104917;28;20039;-76
2022/12/11 00:04:54;;;;;;;4.25;2.83;;;16.20;68.50;;;;;;5104867;28;20047;-73
2022/12/11 00:07:20;;;;;;;4.32;2.65;;;16.10;68.50;;;;;;5104796;28;20023;-73
2022/12/11 00:09:45;;;;;;;4.72;3.05;;;16.10;68.50;;;;;;5086477;28;20016;-73
2022/12/11 00:12:11;;;;;;;3.63;2.35;;;16.10;68.40;;;;;;5104705;28;20031;-73
2022/12/11 00:14:37;;;;;;;5.25;2.63;;;16.10;68.40;;;;;;5104598;28;20330;-72
2022/12/11 00:17:03;;;;;;;5.05;2.80;;;16.10;68.40;;;;;;5104538;28;20028;-75
2022/12/11 00:19:29;;;;;;;4.95;3.22;;;16.10;68.40;;;;;;5104482;28;20069;-75
2022/12/11 00:21:55;;;;;;;5.35;3.20;;;16.10;68.40;;;;;;5104577;28;20020;-74
2022/12/11 00:24:20;;;;;;;4.18;2.65;;;16.10;68.40;;;;;;5086421;28;20036;-73
2022/12/11 00:26:46;;;;;;;3.45;2.45;;;16.10;68.40;;;;;;5104470;28;20020;-73
2022/12/11 00:29:13;;;;;;;3.30;2.30;;;16.10;68.40;;;;;;5104278;28;20408;-73
2022/12/11 00:31:40;;;;;;;3.92;2.67;;;16.10;68.50;;;;;;5104367;28;20039;-73
2022/12/11 00:34:07;;;;;;;2.88;2.53;;;16.10;68.60;;;;;;5086171;28;20020;-75
2022/12/11 00:36:33;;;;;;;4.22;2.90;;;16.10;68.50;;;;;;5104270;28;20024;-74
2022/12/11 00:39:00;;;;;;;3.38;2.70;;;16.10;68.50;;;;;;5104157;28;20221;-74
2022/12/11 00:41:26;;;;;;;5.75;3.10;;;16.10;68.50;;;;;;5104167;28;20079;-72
2022/12/11 00:43:52;;;;;;;3.97;2.83;;;16.10;68.60;;;;;;5086118;28;20016;-72
2022/12/11 00:46:18;;;;;;;4.07;2.88;;;16.10;68.60;;;;;;5085998;28;20395;-72
2022/12/11 00:48:45;;;;;;;5.55;2.80;;;16.10;68.60;;;;;;5104017;28;20035;-75
2022/12/11 00:51:11;;;;;;;3.72;2.83;;;16.10;68.60;;;;;;5103950;28;20024;-74
2022/12/11 00:53:38;;;;;;;3.78;2.97;;;16.10;68.70;;;;;;5103832;28;20027;-73
2022/12/11 00:56:15;;;;;;;3.00;2.40;;;16.10;68.60;;;;;;5085803;28;20228;-75
2022/12/11 00:58:41;;;;;;;4.13;3.10;;;16.10;68.50;;;;;;5103845;28;20020;-73
2022/12/11 01:01:10;;;;;;;3.47;2.15;;;16.10;68.60;;;;;;5103728;28;20258;-73
2022/12/11 01:03:37;;;;;;;4.72;3.17;;;16.20;68.60;;;;;;5103608;28;20268;-72
2022/12/11 01:06:03;;;;;;;2.90;2.40;;;16.20;68.60;;;;;;5103632;28;20017;-73
2022/12/11 01:08:29;;;;;;;3.38;2.80;;;16.20;68.50;;;;;;5103518;28;20028;-75
2022/12/11 01:11:05;;;;;;;3.80;2.78;;;16.10;69.00;;;;;;5103588;28;20030;-73
2022/12/11 01:13:31;;;;;;;3.95;2.90;;;16.20;68.40;;;;;;5103600;28;20016;-74
2022/12/11 01:15:57;;;;;;;3.00;2.67;;;16.20;68.40;;;;;;5103443;28;20070;-73
2022/12/11 01:18:23;;;;;;;3.72;2.83;;;16.10;68.30;;;;;;5103367;28;20051;-73
2022/12/11 01:20:49;;;;;;;4.80;2.92;;;16.10;68.30;;;;;;5103456;28;20028;-74
2022/12/11 01:23:15;;;;;;;2.80;2.42;;;16.10;68.40;;;;;;5103220;28;20023;-73
2022/12/11 01:25:41;;;;;;;3.22;2.67;;;16.10;68.20;;;;;;5103246;28;20071;-73
2022/12/11 01:28:08;;;;;;;5.88;3.25;;;16.10;68.20;;;;;;5103067;28;20023;-73
2022/12/11 01:30:34;;;;;;;4.80;2.47;;;16.10;68.20;;;;;;5103225;28;20027;-74
2022/12/11 01:33:00;;;;;;;3.00;2.50;;;16.10;68.30;;;;;;5103187;28;20088;-73
2022/12/11 01:35:26;;;;;;;3.70;2.40;;;16.10;68.30;;;;;;5103081;28;20351;-73
2022/12/11 01:37:52;;;;;;;3.15;2.47;;;16.10;68.30;;;;;;5102998;28;20084;-74
2022/12/11 01:40:20;;;;;;;3.63;2.88;;;16.10;68.40;;;;;;5102970;28;20016;-73
2022/12/11 01:42:46;;;;;;;3.05;2.47;;;16.10;68.50;;;;;;5103012;28;20019;-73
2022/12/11 01:45:21;;;;;;;4.30;3.20;;;16.10;68.50;;;;;;5084879;28;20016;-73
2022/12/11 01:47:54;;;;;;;4.22;2.42;;;16.10;68.30;;;;;;5102921;28;20177;-73
2022/12/11 01:50:20;;;;;;;3.63;2.85;;;16.10;68.30;;;;;;5103011;28;20038;-76
2022/12/11 01:52:48;;;;;;;4.75;2.60;;;16.10;68.40;;;;;;5102854;28;20019;-74
2022/12/11 01:55:16;;;;;;;3.90;2.83;;;16.10;68.40;;;;;;5102864;28;20012;-73
2022/12/11 01:57:46;;;;;;;3.50;2.28;;;16.10;68.50;;;;;;5102792;28;20272;-74
2022/12/11 02:00:12;;;;;;;5.07;2.67;;;16.10;68.50;;;;;;5102674;28;20055;-73
2022/12/11 02:02:38;;;;;;;3.25;2.80;;;16.10;68.50;;;;;;5102764;28;20047;-72
2022/12/11 02:05:05;;;;;;;3.97;2.72;;;16.10;68.50;;;;;;5102233;28;20410;-72
2022/12/11 02:07:51;;;;;;;3.08;2.67;;;16.10;68.50;;;;;;5102761;28;20058;-73
2022/12/11 02:10:17;;;;;;;2.70;2.30;;;16.10;68.40;;;;;;5102572;28;20016;-72
2022/12/11 02:12:55;;;;;;;4.15;2.85;;;16.10;68.30;;;;;;5084547;28;20022;-73
2022/12/11 02:15:48;;;;;;;3.35;2.65;;;16.10;68.20;;;;;;5102508;28;20019;-75
2022/12/11 02:18:52;;;;;;;3.33;2.50;;;16.10;68.20;;;;;;5102396;28;20458;-72
2022/12/11 02:21:27;;;;;;;4.80;2.92;;;16.10;68.30;;;;;;5020142;28;20029;-73
2022/12/11 02:24:20;;;;;;;3.58;2.40;;;16.10;68.30;;;;;;5090310;28;20099;-72
2022/12/11 02:27:07;;;;;;;3.03;2.42;;;16.10;68.20;;;;;;5102339;28;20085;-75
2022/12/11 02:29:53;;;;;;;2.65;2.38;;;16.10;68.30;;;;;;5102194;28;20056;-72
2022/12/11 02:32:40;;;;;;;2.70;2.38;;;16.10;68.30;;;;;;5102332;28;20276;-72
2022/12/11 02:35:27;;;;;;;3.78;2.78;;;16.10;68.20;;;;;;5102383;28;20058;-74
2022/12/11 02:38:01;;;;;;;2.97;2.67;;;16.10;68.20;;;;;;5102291;28;20016;-72
2022/12/11 02:40:30;;;;;;;4.25;2.85;;;16.10;68.20;;;;;;5084135;28;20330;-73
2022/12/11 02:42:58;;;;;;;4.38;2.72;;;16.10;68.20;;;;;;5102241;28;20295;-72
2022/12/11 02:45:26;;;;;;;4.13;2.67;;;16.10;68.30;;;;;;5102142;28;20189;-73
2022/12/11 02:47:53;;;;;;;2.80;2.42;;;16.10;68.30;;;;;;5102184;28;20079;-72
2022/12/11 02:50:20;;;;;;;4.28;2.83;;;16.10;68.40;;;;;;5084158;28;20425;-72
2022/12/11 02:52:50;;;;;;;5.68;2.67;;;16.10;68.40;;;;;;5102043;28;20028;-78
2022/12/11 02:55:17;;;;;;;6.97;2.58;;;16.10;68.40;;;;;;5083994;28;20028;-73
2022/12/11 02:58:02;;;;;;;3.42;2.90;;;16.10;68.30;;;;;;5102060;28;20023;-72
2022/12/11 03:00:28;;;;;;;3.25;2.65;;;16.10;68.20;;;;;;5083979;28;20027;-74
2022/12/11 03:02:53;;;;;;;5.68;2.97;;;16.10;68.30;;;;;;5101866;28;20016;-73
2022/12/11 03:05:19;;;;;;;3.53;2.78;;;16.10;68.20;;;;;;5101975;28;20083;-72
2022/12/11 03:07:45;;;;;;;3.08;2.55;;;16.20;68.30;;;;;;5101973;28;20065;-73
2022/12/11 03:10:13;;;;;;;3.83;2.60;;;16.10;68.30;;;;;;5101791;28;20012;-73
2022/12/11 03:12:43;;;;;;;3.75;2.67;;;16.10;68.20;;;;;;5101974;28;20020;-73
2022/12/11 03:15:14;;;;;;;3.38;2.60;;;16.20;68.30;;;;;;5101833;28;20020;-72
2022/12/11 03:17:58;;;;;;;4.43;2.67;;;16.10;68.20;;;;;;5085291;28;20307;-76
2022/12/11 03:20:30;;;;;;;4.90;2.83;;;16.20;68.10;;;;;;5105734;28;20309;-73
2022/12/11 03:23:02;;;;;;;2.97;2.28;;;16.10;68.10;;;;;;5105733;28;20061;-73
2022/12/11 03:25:42;;;;;;;3.92;2.33;;;16.20;68.10;;;;;;5087527;28;20381;-74
2022/12/11 03:28:18;;;;;;;3.60;2.70;;;16.10;68.00;;;;;;5087317;28;20027;-72
2022/12/11 03:30:45;;;;;;;3.78;2.83;;;16.10;68.10;;;;;;5105767;28;20319;-72
2022/12/11 03:33:19;;;;;;;3.38;2.55;;;16.10;68.10;;;;;;5105410;28;20070;-73
2022/12/11 03:35:58;;;;;;;4.20;2.80;;;16.10;68.10;;;;;;5087367;28;20016;-73
2022/12/11 03:38:30;;;;;;;2.92;2.42;;;16.10;68.00;;;;;;5105380;28;20020;-73
2022/12/11 03:41:00;;;;;;;3.97;2.55;;;16.10;68.10;;;;;;5087167;28;20020;-73
2022/12/11 03:43:29;;;;;;;3.97;2.42;;;16.10;68.00;;;;;;5105376;28;20018;-74
2022/12/11 03:45:57;;;;;;;3.38;2.60;;;16.10;68.00;;;;;;5105287;28;20016;-73
2022/12/11 03:48:27;;;;;;;3.15;2.33;;;16.10;68.00;;;;;;5105232;28;20047;-74
2022/12/11 03:50:53;;;;;;;4.60;2.47;;;16.10;68.00;;;;;;5105066;28;20032;-77
2022/12/11 03:53:20;;;;;;;2.90;2.60;;;16.10;68.10;;;;;;5105119;28;20016;-73
2022/12/11 03:55:48;;;;;;;4.80;2.67;;;16.10;68.20;;;;;;5105021;28;20310;-73
2022/12/11 03:58:14;;;;;;;2.90;2.63;;;16.10;68.20;;;;;;5104935;28;20016;-73
2022/12/11 04:00:40;;;;;;;2.72;2.45;;;16.10;68.30;;;;;;5104915;28;20020;-73
2022/12/11 04:03:11;;;;;;;5.03;2.65;;;16.10;68.40;;;;;;5086897;28;20016;-73
2022/12/11 04:05:38;;;;;;;3.50;2.58;;;16.10;68.30;;;;;;5104962;28;20015;-73
2022/12/11 04:08:04;;;;;;;5.22;3.08;;;16.10;68.30;;;;;;5104968;28;20024;-73
2022/12/11 04:10:30;;;;;;;3.35;2.42;;;16.10;68.30;;;;;;5104844;28;20012;-73
2022/12/11 04:12:55;;;;;;;3.13;2.25;;;16.10;68.30;;;;;;5104760;28;20016;-73
2022/12/11 04:15:21;;;;;;;4.30;2.38;;;16.10;68.20;;;;;;5104647;28;20016;-73
2022/12/11 04:26:14;;;;;;;4.07;2.40;;;16.10;68.10;;;;;;5104519;28;20015;-73
2022/12/11 04:28:41;;;;;;;3.50;2.67;;;16.20;68.10;;;;;;5103883;28;20124;-73
2022/12/11 04:31:14;;;;;;;2.78;2.47;;;16.10;68.10;;;;;;5104399;28;20032;-72
2022/12/11 04:33:40;;;;;;;3.60;2.70;;;16.10;68.10;;;;;;5104408;28;20367;-75
2022/12/11 04:36:07;;;;;;;2.97;2.30;;;16.20;68.00;;;;;;5104324;28;20024;-74
2022/12/11 04:38:33;;;;;;;2.95;2.65;;;16.20;67.90;;;;;;5104192;28;20015;-73
2022/12/11 04:41:05;;;;;;;3.70;2.75;;;16.10;67.90;;;;;;5104144;28;20188;-73
2022/12/11 04:43:31;;;;;;;3.45;2.72;;;16.10;67.90;;;;;;5104292;28;20031;-73
2022/12/11 04:46:05;;;;;;;3.20;2.40;;;16.10;67.90;;;;;;5104101;28;20062;-73
2022/12/11 04:48:31;;;;;;;2.88;2.13;;;16.10;67.90;;;;;;5104080;28;20048;-73
2022/12/11 04:50:57;;;;;;;3.72;2.38;;;16.00;67.90;;;;;;5104025;28;20016;-72
2022/12/11 04:53:23;;;;;;;3.78;2.17;;;16.10;67.90;;;;;;5103981;28;20020;-73
2022/12/11 04:55:49;;;;;;;3.35;2.72;;;16.10;67.80;;;;;;5103915;28;20285;-74
2022/12/11 04:58:15;;;;;;;3.22;2.72;;;16.10;67.80;;;;;;5103939;28;20035;-72
2022/12/11 05:00:41;;;;;;;4.57;2.42;;;16.10;67.90;;;;;;5103855;28;20015;-73
2022/12/11 05:03:07;;;;;;;2.33;1.90;;;16.10;67.80;;;;;;5103813;28;20020;-72
2022/12/11 05:05:33;;;;;;;3.28;2.70;;;16.10;68.00;;;;;;5103821;28;20016;-73
2022/12/11 05:07:59;;;;;;;4.93;2.80;;;16.10;68.00;;;;;;5085698;28;20034;-73
2022/12/11 05:10:25;;;;;;;4.47;2.30;;;16.10;68.10;;;;;;5103636;28;20024;-75
2022/12/11 05:12:51;;;;;;;4.03;2.90;;;16.10;68.20;;;;;;5103532;28;20020;-73
2022/12/11 05:15:16;;;;;;;3.67;2.33;;;16.10;68.20;;;;;;5085338;28;20012;-72
2022/12/11 05:17:42;;;;;;;3.10;2.28;;;16.10;68.20;;;;;;5103509;28;20040;-74
2022/12/11 05:20:09;;;;;;;3.45;2.50;;;16.10;68.20;;;;;;5085243;28;20087;-73
2022/12/11 05:22:36;;;;;;;5.22;2.67;;;16.10;68.20;;;;;;5103415;28;20020;-75
2022/12/11 05:25:02;;;;;;;3.28;2.30;;;16.10;68.10;;;;;;5085242;28;20012;-72
2022/12/11 05:27:28;;;;;;;4.20;2.50;;;16.10;68.20;;;;;;5103378;28;20020;-73
2022/12/11 05:29:54;;;;;;;3.88;2.30;;;16.10;68.20;;;;;;5103194;28;20047;-74
2022/12/11 05:32:19;;;;;;;2.95;2.13;;;16.10;68.20;;;;;;5103311;28;20020;-72
2022/12/11 05:34:45;;;;;;;5.95;2.65;;;16.10;68.00;;;;;;5103204;28;20043;-73
2022/12/11 05:37:11;;;;;;;3.13;2.53;;;16.10;68.00;;;;;;5085057;28;20022;-72
2022/12/11 05:39:37;;;;;;;3.03;2.50;;;16.10;68.10;;;;;;5102372;28;20066;-73
2022/12/11 05:42:03;;;;;;;4.53;3.17;;;16.10;68.00;;;;;;5103002;28;20016;-72
2022/12/11 05:44:29;;;;;;;2.70;2.15;;;16.10;68.00;;;;;;5103043;28;20057;-74
2022/12/11 05:46:55;;;;;;;4.00;2.55;;;16.10;67.80;;;;;;5102999;28;20066;-74
2022/12/11 05:49:21;;;;;;;2.72;2.13;;;16.10;67.80;;;;;;5102871;28;20045;-75
2022/12/11 05:51:46;;;;;;;3.13;2.40;;;16.10;67.90;;;;;;5102896;28;20045;-73
2022/12/11 05:54:12;;;;;;;3.53;2.47;;;16.10;67.70;;;;;;5102825;28;20020;-73
2022/12/11 05:56:38;;;;;;;3.72;2.50;;;16.10;67.80;;;;;;5102760;28;20030;-74
2022/12/11 05:59:05;;;;;;;4.57;2.63;;;16.00;67.80;;;;;;5102658;28;20047;-74
2022/12/11 06:01:41;;;;;;;4.07;2.47;;;16.10;67.80;;;;;;5102673;28;20020;-74
2022/12/11 06:04:09;;;;;;;2.35;2.15;;;16.00;67.50;;;;;;5102710;28;20016;-72
2022/12/11 06:06:35;;;;;;;3.20;2.40;;;16.10;67.70;;;;;;5102635;28;20016;-73
2022/12/11 06:09:03;;;;;;;2.50;2.13;;;16.10;68.30;;;;;;5102565;28;20036;-75
2022/12/11 06:11:31;;;;;;;3.95;2.60;;;16.10;67.80;;;;;;5102479;28;20299;-74
2022/12/11 06:13:57;;;;;;;2.77;2.40;;;16.10;67.70;;;;;;5102588;28;20059;-74
2022/12/11 06:16:24;;;;;;;3.00;2.30;;;16.10;67.80;;;;;;5102492;28;20024;-73
2022/12/11 06:18:50;;;;;;;3.33;2.38;;;16.10;67.80;;;;;;5102437;28;20012;-73
2022/12/11 06:21:18;;;;;;;5.97;3.25;;;16.10;68.00;;;;;;5084384;28;20030;-74
2022/12/11 06:23:46;;;;;;;3.45;2.88;;;16.10;67.90;;;;;;5102434;28;20016;-75
2022/12/11 06:26:13;;;;;;;2.80;2.40;;;16.10;67.90;;;;;;5102383;28;20035;-74
2022/12/11 06:28:39;;;;;;;2.78;2.22;;;16.10;68.10;;;;;;5102283;28;20053;-73
2022/12/11 06:31:05;;;;;;;2.88;2.15;;;16.10;68.10;;;;;;5084239;28;20020;-73
2022/12/11 06:33:31;;;;;;;2.90;2.58;;;16.10;68.20;;;;;;5102481;28;20607;-73
2022/12/11 06:36:05;;;;;;;3.70;2.53;;;16.10;68.10;;;;;;5102298;28;20042;-73
2022/12/11 06:38:31;;;;;;;3.05;2.60;;;16.10;68.20;;;;;;5102176;28;20020;-73
2022/12/11 06:40:59;;;;;;;2.67;2.20;;;16.10;68.20;;;;;;5102332;28;20091;-75
2022/12/11 06:43:24;;;;;;;3.22;2.22;;;16.10;68.10;;;;;;5102172;28;20020;-73
2022/12/11 06:45:51;;;;;;;2.88;2.17;;;16.10;68.10;;;;;;5102230;28;20084;-74
2022/12/11 06:48:18;;;;;;;3.50;2.35;;;16.10;68.10;;;;;;5102240;28;20650;-73
2022/12/11 06:50:43;;;;;;;2.33;2.13;;;16.10;68.10;;;;;;5102177;28;20027;-74
2022/12/11 06:53:11;;;;;;;3.28;2.70;;;16.10;67.90;;;;;;5106242;28;20016;-73
2022/12/11 06:55:37;;;;;;;3.40;2.47;;;16.10;67.90;;;;;;5106299;28;20121;-73
2022/12/11 06:58:03;;;;;;;2.92;2.55;;;16.10;67.90;;;;;;5105997;28;20019;-73
2022/12/11 07:00:29;;;;;;;2.30;2.10;;;16.10;67.80;;;;;;5106262;28;20016;-74
2022/12/11 07:02:55;;;;;;;3.80;2.75;;;16.10;67.80;;;;;;5106085;28;20039;-72
2022/12/11 07:05:21;;;;;;;3.28;2.42;;;16.10;67.80;;;;;;5087983;28;20256;-72
2022/12/11 07:07:47;;;;;;;2.60;2.00;;;16.10;67.70;;;;;;5106000;28;20020;-73
2022/12/11 07:10:12;;;;;;;2.95;2.42;;;16.10;67.70;;;;;;5106024;28;20023;-76
2022/12/11 07:12:38;;;;;;;3.30;2.47;;;16.10;67.70;;;;;;5105976;28;20034;-73
2022/12/11 07:15:05;;;;;;;3.20;2.38;;;16.10;67.60;;;;;;5105971;28;20019;-73
2022/12/11 07:17:31;;;;;;;3.22;2.65;;;16.10;67.60;;;;;;5105796;28;20338;-73
2022/12/11 07:19:57;;;;;;;2.65;2.30;;;16.00;67.50;;;;;;5105773;28;20034;-73
2022/12/11 07:22:22;;;;;;;2.08;1.90;;;16.10;67.50;;;;;;5105708;28;20032;-77
2022/12/11 07:24:48;;;;;;;3.20;2.40;;;16.10;67.60;;;;;;5105706;28;20016;-74
2022/12/11 07:27:14;;;;;;;3.15;2.42;;;16.10;67.70;;;;;;5105720;28;20189;-72
2022/12/11 07:29:40;;;;;;;2.97;2.38;;;16.10;67.70;;;;;;5105558;28;20065;-73
2022/12/11 07:32:06;;;;;;;2.85;2.45;;;16.10;67.80;;;;;;5105554;28;20211;-74
2022/12/11 07:34:31;;;;;;;2.58;1.95;;;16.10;67.70;;;;;;5105484;28;20020;-73
2022/12/11 07:36:57;;;;;;;3.95;2.83;;;16.10;67.80;;;;;;5105414;28;20043;-73
2022/12/11 07:39:23;;;;;;;3.28;2.40;;;16.10;67.80;;;;;;5105383;28;20031;-73
2022/12/11 07:41:49;;;;;;;3.05;2.30;;;16.10;67.90;;;;;;5105268;28;20016;-73
2022/12/11 07:44:14;;;;;;;3.03;2.35;;;16.10;68.00;;;;;;5105361;28;20036;-73
2022/12/11 07:46:40;;;;;;;2.50;2.30;;;16.10;67.90;;;;;;5105430;28;20300;-74
2022/12/11 07:49:06;;;;;;;2.35;1.92;;;16.10;68.00;;;;;;5087057;28;20246;-73
2022/12/11 07:51:34;;;;;;;4.03;2.28;;;16.10;68.00;;;;;;5105215;28;20033;-74
2022/12/11 07:54:03;;;;;;;3.57;2.50;;;16.10;67.90;;;;;;5105117;28;20087;-73
2022/12/11 07:56:30;;;;;;;2.78;2.50;;;16.10;67.80;;;;;;5105161;28;20503;-73
2022/12/11 07:58:59;;;;;;;2.60;2.20;;;16.10;67.90;;;;;;5086865;28;20020;-73
2022/12/11 08:01:26;;;;;;;5.53;2.20;;;16.10;67.80;;;;;;5105074;28;20023;-73
2022/12/11 08:03:53;;;;;;;2.10;1.90;;;16.10;67.80;;;;;;5104057;28;20020;-73
2022/12/11 08:06:25;;;;;;;5.35;2.42;;;16.10;67.80;;;;;;5104834;28;20026;-73
2022/12/11 08:08:53;;;;;;;3.20;2.53;;;16.10;67.70;;;;;;5104949;28;20027;-73
2022/12/11 08:11:18;;;;;;;3.25;2.55;;;16.10;67.80;;;;;;5104752;28;20106;-76
2022/12/11 08:13:44;;;;;;;2.95;2.40;;;16.10;67.70;;;;;;5086709;28;20316;-74
2022/12/11 08:16:12;;;;;;;3.63;2.58;;;16.10;67.70;;;;;;5104691;28;20016;-72
2022/12/11 08:18:38;;;;;;;2.42;2.10;;;16.10;67.60;;;;;;5104643;28;20193;-72
2022/12/11 08:21:09;;;;;;;3.53;2.20;;;16.10;67.60;;;;;;5086576;28;20103;-74
2022/12/11 08:23:35;;;;;;;141.35;15.25;;;16.10;67.50;;;;;;5104611;28;20071;-73
2022/12/11 08:26:02;;;;;;;16.50;2.95;;;16.00;61.50;;;;;;5104073;28;20308;-70
2022/12/11 08:28:29;;;;;;;7.38;2.80;;;16.00;65.80;;;;;;5092433;28;20063;-72
2022/12/11 08:30:55;;;;;;;5.35;2.38;;;16.10;66.90;;;;;;5090571;28;20034;-70
2022/12/11 08:33:21;;;;;;;12.70;3.10;;;16.10;67.20;;;;;;5103171;28;20024;-71
2022/12/11 08:35:46;;;;;;;7.93;2.70;;;16.20;67.40;;;;;;5103268;28;20189;-72
2022/12/11 08:40:47;;;;;;;8.15;2.38;;;16.50;66.90;;;;;;5438863;22;20046;-65
2022/12/11 08:43:13;;;;;;;30.42;3.38;;;16.70;67.30;;;;;;5021637;28;20081;-69
2022/12/11 08:45:39;;;;;;;25.63;3.72;;;16.80;65.80;;;;;;5024066;28;20036;-65
2022/12/11 08:48:05;;;;;;;8.65;2.88;;;16.80;66.40;;;;;;5023747;28;20055;-64
2022/12/11 08:50:31;;;;;;;12.23;3.13;;;16.80;66.40;;;;;;5023899;28;20022;-67
2022/12/11 08:52:57;;;;;;;11.50;2.33;;;16.90;66.00;;;;;;5023933;28;20186;-65
2022/12/11 08:55:23;;;;;;;10.30;2.67;;;16.90;66.80;;;;;;5023878;28;20020;-68
2022/12/11 08:57:49;;;;;;;13.05;3.00;;;16.80;66.70;;;;;;5023878;28;20017;-67
2022/12/11 09:00:15;;;;;;;12.25;3.50;;;16.80;66.50;;;;;;5023684;28;20030;-68
2022/12/11 09:02:41;;;;;;;13.70;3.35;;;16.80;67.70;;;;;;5023715;28;20022;-69
2022/12/11 09:05:08;;;;;;;18.45;2.88;;;16.80;66.90;;;;;;5023650;28;20213;-66
2022/12/11 09:07:35;;;;;;;14.65;3.28;;;16.70;67.00;;;;;;5023592;28;20220;-65
2022/12/11 09:10:01;;;;;;;14.25;2.65;;;16.80;67.30;;;;;;5023520;28;20190;-67
2022/12/11 09:12:27;;;;;;;13.48;3.45;;;16.70;67.20;;;;;;5023548;28;20032;-67
2022/12/11 09:14:53;;;;;;;8.77;2.60;;;16.70;67.30;;;;;;5023368;28;20018;-65
2022/12/11 09:17:19;;;;;;;9.68;3.58;;;16.70;67.20;;;;;;5023430;28;20029;-67
2022/12/11 09:19:45;;;;;;;6.53;3.08;;;16.80;67.30;;;;;;5023332;28;20030;-67
2022/12/11 09:22:11;;;;;;;10.07;2.97;;;16.80;67.40;;;;;;5022778;28;20305;-69
2022/12/11 09:24:38;;;;;;;8.43;3.63;;;16.80;67.10;;;;;;5023461;28;20215;-69
2022/12/11 09:27:04;;;;;;;9.90;2.42;;;16.80;67.10;;;;;;5022096;28;20021;-69
2022/12/11 09:29:31;;;;;;;10.73;3.03;;;16.80;67.00;;;;;;5023208;28;20336;-68
2022/12/11 09:31:57;;;;;;;6.00;2.45;;;16.80;67.10;;;;;;5023174;28;20018;-67
2022/12/11 09:34:23;;;;;;;11.45;3.30;;;16.80;67.20;;;;;;5023177;28;20104;-67
2022/12/11 09:36:48;;;;;;;9.20;2.50;;;16.70;67.10;;;;;;5023129;28;20049;-67
2022/12/11 09:39:16;;;;;;;12.30;2.70;;;16.80;68.10;;;;;;5022522;28;20057;-66
2022/12/11 09:42:14;;;;;;;9.00;2.83;;;16.80;67.70;;;;;;5022944;28;20030;-67
2022/12/11 09:44:50;;;;;;;7.43;3.13;;;16.80;67.50;;;;;;5022965;28;20305;-67
2022/12/11 09:47:28;;;;;;;6.70;2.85;;;16.80;67.10;;;;;;5022825;28;20034;-70
2022/12/11 09:50:09;;;;;;;6.70;2.72;;;16.80;67.10;;;;;;5022972;28;20025;-68
2022/12/11 09:52:53;;;;;;;13.23;2.97;;;16.80;67.10;;;;;;5022855;28;20021;-67
2022/12/11 09:55:26;;;;;;;10.88;3.00;;;16.80;67.30;;;;;;5022759;28;20025;-67
2022/12/11 09:58:19;;;;;;;10.15;3.38;;;16.80;67.30;;;;;;5022821;28;20317;-66
2022/12/11 10:00:56;;;;;;;16.25;3.92;;;16.80;67.80;;;;;;5022718;28;20340;-67
2022/12/11 10:03:42;;;;;;;24.00;3.80;;;16.80;67.70;;;;;;5022718;28;20237;-69
2022/12/11 10:06:19;;;;;;;9.02;2.58;;;16.80;68.00;;;;;;5022765;28;20256;-71
2022/12/11 10:09:16;;;;;;;7.82;2.42;;;16.80;67.90;;;;;;5022763;28;20017;-65
2022/12/11 10:12:05;;;;;;;18.88;3.40;;;16.80;67.50;;;;;;4979769;28;20045;-64
2022/12/11 10:14:41;;;;;;;9.80;2.97;;;16.80;67.70;;;;;;5010582;28;20094;-71
2022/12/11 10:17:19;;;;;;;7.72;3.28;;;16.80;67.30;;;;;;5022753;28;20064;-68
2022/12/11 10:19:46;;;;;;;13.38;2.80;;;16.90;67.50;;;;;;5022539;28;20021;-68
2022/12/11 10:22:22;;;;;;;16.88;3.33;;;16.90;67.40;;;;;;5022553;28;20026;-68
2022/12/11 10:25:15;;;;;;;7.10;2.30;;;16.90;67.60;;;;;;5004920;28;20328;-65
2022/12/11 10:27:41;;;;;;;11.13;3.13;;;16.90;67.40;;;;;;5021929;28;20057;-67
2022/12/11 10:30:20;;;;;;;9.13;2.83;;;16.80;67.40;;;;;;5022277;28;20222;-67
2022/12/11 10:33:07;;;;;;;9.93;2.72;;;16.80;67.70;;;;;;5022364;28;20025;-68
2022/12/11 10:36:05;;;;;;;7.18;2.95;;;16.90;67.70;;;;;;5022321;28;20056;-68
2022/12/11 10:38:33;;;;;;;8.75;3.25;;;16.90;67.10;;;;;;5001050;28;20038;-67
2022/12/11 10:41:09;;;;;;;7.70;3.10;;;17.00;67.10;;;;;;5022097;28;20042;-66
2022/12/11 10:43:44;;;;;;;11.35;3.90;;;17.00;66.80;;;;;;5022237;28;20021;-65
2022/12/11 10:46:22;;;;;;;8.20;2.70;;;16.90;66.80;;;;;;5022350;28;20236;-65
2022/12/11 10:48:54;;;;;;;5.85;2.88;;;17.00;67.50;;;;;;5022287;28;20020;-67
2022/12/11 10:51:31;;;;;;;5.50;2.70;;;16.90;67.30;;;;;;5022399;28;20040;-69
2022/12/11 10:54:05;;;;;;;7.95;2.78;;;16.90;67.40;;;;;;5022104;28;20081;-68
2022/12/11 10:56:34;;;;;;;8.82;2.60;;;16.90;67.70;;;;;;5022170;28;20205;-66
2022/12/11 10:59:00;;;;;;;3.85;2.38;;;17.00;67.40;;;;;;5021801;28;20036;-66
2022/12/11 11:01:29;;;;;;;4.63;2.35;;;17.00;67.20;;;;;;5022041;28;20081;-65
2022/12/11 11:04:02;;;;;;;6.80;2.50;;;17.10;67.10;;;;;;5022043;28;20056;-64
2022/12/11 11:06:28;;;;;;;6.85;2.45;;;17.10;66.70;;;;;;5021989;28;20048;-64
2022/12/11 11:08:57;;;;;;;5.75;2.40;;;17.20;66.60;;;;;;5021912;28;20024;-65
2022/12/11 11:11:23;;;;;;;;;;;17.10;66.70;;;;;;5022349;28;20068;-65
2022/12/11 11:19:47;;;;;;;13.10;2.95;;;17.20;66.60;;;;;;5112024;27;20374;-65
2022/12/11 11:22:18;;;;;;;7.90;2.42;;;17.10;66.90;;;;;;5114002;28;20028;-66
2022/12/11 11:24:57;;;;;;;5.57;2.45;;;17.10;67.40;;;;;;5119980;28;20043;-65
2022/12/11 11:27:47;;;;;;;13.75;3.47;;;17.10;67.10;;;;;;5119891;28;20015;-66
2022/12/11 11:30:18;;;;;;;6.97;2.35;;;17.00;67.20;;;;;;5119869;28;20022;-66
2022/12/11 11:32:45;;;;;;;8.38;2.65;;;17.00;66.80;;;;;;5119919;28;20015;-66
2022/12/11 11:35:10;;;;;;;7.28;4.68;;;17.00;66.80;;;;;;5119796;28;20027;-66
2022/12/11 11:37:38;;;;;;;5.53;2.72;;;16.90;67.40;;;;;;5119695;28;20050;-66
2022/12/11 11:40:21;;;;;;;7.93;2.10;;;17.00;67.30;;;;;;5117785;28;20020;-66
2022/12/11 11:43:06;;;;;;;8.02;3.22;;;17.00;67.00;;;;;;5114008;28;20024;-66
2022/12/11 11:46:07;;;;;;;8.68;2.53;;;16.90;67.20;;;;;;5119568;28;20011;-65
2022/12/11 11:48:39;;;;;;;4.95;2.55;;;17.00;66.90;;;;;;5118390;28;20016;-65
2022/12/11 11:51:23;;;;;;;9.10;3.35;;;16.90;66.50;;;;;;5119551;28;20027;-71
2022/12/11 11:53:52;;;;;;;6.60;2.40;;;17.00;66.90;;;;;;5119553;28;20039;-68
2022/12/11 11:56:30;;;;;;;9.27;2.25;;;17.00;66.80;;;;;;5119420;28;20057;-66
2022/12/11 11:58:58;;;;;;;9.98;3.10;;;17.10;67.30;;;;;;5119368;28;20069;-67
2022/12/11 12:01:24;;;;;;;6.85;2.78;;;17.20;66.00;;;;;;5119382;28;20288;-65
2022/12/11 12:03:51;;;;;;;13.77;3.42;;;17.20;66.10;;;;;;5119300;28;20058;-66
2022/12/11 12:06:32;;;;;;;5.53;2.40;;;17.20;66.40;;;;;;5119287;28;20016;-68
2022/12/11 12:09:26;;;;;;;31.15;5.38;;;17.30;66.50;;;;;;5119245;28;20065;-66
2022/12/11 12:12:12;;;;;;;14.57;3.67;;;17.30;66.40;;;;;;5093234;28;20085;-64
2022/12/11 12:14:54;;;;;;;30.65;3.78;;;17.30;67.20;;;;;;5076327;28;20242;-63
2022/12/11 12:17:34;;;;;;;38.33;8.07;;;17.30;66.70;;;;;;5116893;28;20027;-63
2022/12/11 12:20:21;;;;;;;59.92;14.20;;;17.40;66.80;;;;;;5118937;28;20024;-62
2022/12/11 12:23:02;;;;;;;33.42;9.70;;;17.40;67.00;;;;;;5118924;28;20042;-62
2022/12/11 12:25:57;;;;;;;47.28;10.15;;;17.40;66.80;;;;;;5118968;28;20315;-63
2022/12/11 12:28:40;;;;;;;22.10;7.72;;;17.50;66.60;;;;;;5081082;28;20033;-65
2022/12/11 12:31:39;;;;;;;30.98;8.15;;;17.50;66.90;;;;;;5105103;28;20020;-64
2022/12/11 12:34:25;;;;;;;23.77;7.82;;;17.40;66.80;;;;;;5105213;28;20057;-60
2022/12/11 12:37:16;;;;;;;23.48;7.38;;;17.40;66.90;;;;;;5105198;28;20268;-65
2022/12/11 12:39:47;;;;;;;21.38;6.40;;;17.40;66.80;;;;;;5099985;28;20073;-64
2022/12/11 12:42:22;;;;;;;21.60;7.57;;;17.50;66.90;;;;;;5101878;28;20012;-65
2022/12/11 12:45:14;;;;;;;19.65;7.22;;;17.50;64.30;;;;;;5104957;28;20057;-66
2022/12/11 12:47:42;;;;;;;26.75;9.48;;;17.70;65.50;;;;;;5104877;28;20020;-63
2022/12/11 12:50:19;;;;;;;26.48;12.23;;;18.00;64.90;;;;;;5104877;28;20026;-65
2022/12/11 12:52:46;;;;;;;27.85;11.32;;;18.10;64.50;;;;;;5104832;28;20369;-64
2022/12/11 12:55:16;;;;;;;21.85;11.60;;;18.00;65.10;;;;;;5104751;28;20043;-63
2022/12/11 12:58:00;;;;;;;29.98;11.57;;;18.00;65.40;;;;;;5104662;28;20323;-64
2022/12/11 13:00:33;;;;;;;31.77;12.05;;;18.20;64.90;;;;;;5098394;28;20319;-63
2022/12/11 13:03:15;;;;;;;27.25;11.45;;;18.30;64.00;;;;;;5102609;28;20308;-63
2022/12/11 13:05:59;;;;;;;21.60;10.43;;;18.30;64.30;;;;;;5104627;28;20084;-65
2022/12/11 13:08:29;;;;;;;19.02;9.70;;;18.30;64.50;;;;;;5104525;28;20020;-65
2022/12/11 13:11:07;;;;;;;21.15;10.32;;;18.40;64.00;;;;;;5104538;28;20027;-63
2022/12/11 13:13:42;;;;;;;21.60;9.43;;;18.40;63.60;;;;;;5104435;28;20341;-62
2022/12/11 13:16:14;;;;;;;27.20;10.90;;;18.30;63.80;;;;;;5104189;28;20024;-64
2022/12/11 13:18:41;;;;;;;24.83;10.63;;;18.20;64.30;;;;;;5104000;28;20055;-62